Star Lake, Wisconsin
Current Conditions -  °F | °C
As of 11:15 AM on Thursday 30 Oct 2014 (Local Time) from KEGV Reporting Station
Overcast Overcast  
Wind Chill: 33°   Ceiling: 1600
Heat Index: 38°   Visibility: 10mi
Dew Point: 31°   Wind: 6mph
Humidity: 77%   Direction: 300°WNW
Pressure: 30.03"   Gusts: NA
Location:  46.04°N, 89.47°W
Report Text: KEGV 301615Z AUTO 30005KT 10SM OVC016 03/00 A3003 RMK AO2 T00331004
Loading
Personal Weather Stations






























Interactive Weather Map
Tropical Storm Tracking
New forecast layout! Learn more

10-Day Weather Forecast

Advertisements
Track Severe Weather on mobile